sensor_id;sensor_type;location;lat;lon;timestamp;pressure;altitude;pressure_sealevel;temperature;humidity
48027;BME280;50714;49.208;5.364;2022-09-09T00:06:24;98902.75;;;18.35;67.78
48027;BME280;50714;49.208;5.364;2022-09-09T00:16:29;98908.75;;;18.32;66.65
48027;BME280;50714;49.208;5.364;2022-09-09T00:26:38;98913.16;;;18.38;66.84
48027;BME280;50714;49.208;5.364;2022-09-09T00:36:41;98903.63;;;18.51;66.90
48027;BME280;50714;49.208;5.364;2022-09-09T00:46:59;98903.38;;;18.58;67.16
48027;BME280;50714;49.208;5.364;2022-09-09T00:57:26;98895.16;;;18.58;68.29
48027;BME280;50714;49.208;5.364;2022-09-09T01:07:28;98886.66;;;18.49;66.39
48027;BME280;50714;49.208;5.364;2022-09-09T01:17:32;98888.28;;;18.40;67.11
48027;BME280;50714;49.208;5.364;2022-09-09T01:27:36;98893.16;;;18.28;66.96
48027;BME280;50714;49.208;5.364;2022-09-09T01:37:37;98894.78;;;18.19;67.37
48027;BME280;50714;49.208;5.364;2022-09-09T01:47:38;98895.03;;;18.12;67.54
48027;BME280;50714;49.208;5.364;2022-09-09T02:18:45;98894.94;;;17.97;68.46
48027;BME280;50714;49.208;5.364;2022-09-09T02:28:49;98897.41;;;17.93;68.10
48027;BME280;50714;49.208;5.364;2022-09-09T02:38:51;98909.13;;;17.89;68.64
48027;BME280;50714;49.208;5.364;2022-09-09T02:49:03;98900.63;;;17.85;69.30
48027;BME280;50714;49.208;5.364;2022-09-09T02:59:09;98892.41;;;17.80;68.34
48027;BME280;50714;49.208;5.364;2022-09-09T03:09:10;98906.53;;;17.72;68.33
48027;BME280;50714;49.208;5.364;2022-09-09T03:19:10;98911.94;;;17.62;68.66
48027;BME280;50714;49.208;5.364;2022-09-09T03:29:12;98912.97;;;17.56;68.92
48027;BME280;50714;49.208;5.364;2022-09-09T03:39:12;98917.31;;;17.52;68.98
48027;BME280;50714;49.208;5.364;2022-09-09T03:49:14;98918.94;;;17.53;69.14
48027;BME280;50714;49.208;5.364;2022-09-09T03:59:15;98905.59;;;17.56;68.99
48027;BME280;50714;49.208;5.364;2022-09-09T04:09:16;98904.56;;;17.62;69.30
48027;BME280;50714;49.208;5.364;2022-09-09T04:19:16;98905.72;;;17.71;69.36
48027;BME280;50714;49.208;5.364;2022-09-09T04:29:16;98909.28;;;17.72;68.90
48027;BME280;50714;49.208;5.364;2022-09-09T04:39:17;98905.72;;;17.66;68.97
48027;BME280;50714;49.208;5.364;2022-09-09T04:49:17;98912.75;;;17.62;69.02
48027;BME280;50714;49.208;5.364;2022-09-09T04:59:18;98930.97;;;17.57;69.20
48027;BME280;50714;49.208;5.364;2022-09-09T05:09:18;98921.41;;;17.54;68.79
48027;BME280;50714;49.208;5.364;2022-09-09T05:19:18;98923.06;;;17.55;68.72
48027;BME280;50714;49.208;5.364;2022-09-09T05:29:19;98931.25;;;17.55;68.51
48027;BME280;50714;49.208;5.364;2022-09-09T05:39:20;98928.50;;;17.55;68.33
48027;BME280;50714;49.208;5.364;2022-09-09T05:49:20;98929.44;;;17.66;68.42
48027;BME280;50714;49.208;5.364;2022-09-09T05:59:21;98930.41;;;17.87;68.44
48027;BME280;50714;49.208;5.364;2022-09-09T06:09:23;98933.50;;;18.05;67.98
48027;BME280;50714;49.208;5.364;2022-09-09T06:19:24;98943.09;;;18.13;67.94
48027;BME280;50714;49.208;5.364;2022-09-09T06:29:26;98947.22;;;18.16;67.98
48027;BME280;50714;49.208;5.364;2022-09-09T06:39:26;98943.38;;;18.17;67.74
48027;BME280;50714;49.208;5.364;2022-09-09T06:49:27;98957.59;;;18.24;67.09
48027;BME280;50714;49.208;5.364;2022-09-09T06:59:27;98939.13;;;18.51;67.07
48027;BME280;50714;49.208;5.364;2022-09-09T07:09:28;98947.22;;;19.19;65.95
48027;BME280;50714;49.208;5.364;2022-09-09T07:19:29;98942.31;;;19.31;64.92
48027;BME280;50714;49.208;5.364;2022-09-09T07:29:30;98951.88;;;19.18;64.44
48027;BME280;50714;49.208;5.364;2022-09-09T07:39:30;98953.50;;;19.19;64.49
48027;BME280;50714;49.208;5.364;2022-09-09T07:49:31;98955.69;;;19.17;64.31
48027;BME280;50714;49.208;5.364;2022-09-09T07:59:32;98960.06;;;19.38;63.60
48027;BME280;50714;49.208;5.364;2022-09-09T08:09:33;98966.91;;;19.87;63.68
48027;BME280;50714;49.208;5.364;2022-09-09T08:19:34;98969.28;;;20.93;61.94
48027;BME280;50714;49.208;5.364;2022-09-09T08:29:35;98973.41;;;20.91;60.14
48027;BME280;50714;49.208;5.364;2022-09-09T08:39:37;98972.66;;;21.19;61.33
48027;BME280;50714;49.208;5.364;2022-09-09T08:49:42;98967.16;;;23.39;57.77
48027;BME280;50714;49.208;5.364;2022-09-09T08:59:50;98986.72;;;25.48;55.35
48027;BME280;50714;49.208;5.364;2022-09-09T09:20:14;98978.13;;;24.64;50.21
48027;BME280;50714;49.208;5.364;2022-09-09T09:40:18;98974.56;;;23.76;52.59
48027;BME280;50714;49.208;5.364;2022-09-09T09:50:19;98988.25;;;23.81;52.10
48027;BME280;50714;49.208;5.364;2022-09-09T10:00:22;98990.41;;;23.84;53.48
48027;BME280;50714;49.208;5.364;2022-09-09T10:10:30;98991.66;;;24.05;53.26
48027;BME280;50714;49.208;5.364;2022-09-09T10:31:21;98978.25;;;25.08;50.77
48027;BME280;50714;49.208;5.364;2022-09-09T10:52:18;98969.66;;;25.46;46.85
48027;BME280;50714;49.208;5.364;2022-09-09T11:02:29;98974.22;;;29.84;47.48
48027;BME280;50714;49.208;5.364;2022-09-09T11:12:30;98947.00;;;33.63;41.99
48027;BME280;50714;49.208;5.364;2022-09-09T11:42:42;98954.00;;;29.00;48.50
48027;BME280;50714;49.208;5.364;2022-09-09T11:52:47;98950.72;;;33.29;41.72
48027;BME280;50714;49.208;5.364;2022-09-09T12:02:49;98951.13;;;33.69;39.35
48027;BME280;50714;49.208;5.364;2022-09-09T12:12:52;98951.88;;;31.54;40.44
48027;BME280;50714;49.208;5.364;2022-09-09T12:33:11;98998.63;;;26.64;44.65
48027;BME280;50714;49.208;5.364;2022-09-09T12:43:21;98984.59;;;24.32;48.48
48027;BME280;50714;49.208;5.364;2022-09-09T12:53:25;98960.63;;;24.00;51.44
48027;BME280;50714;49.208;5.364;2022-09-09T13:03:27;98976.69;;;24.66;50.32
48027;BME280;50714;49.208;5.364;2022-09-09T13:13:39;98957.34;;;23.84;52.26
48027;BME280;50714;49.208;5.364;2022-09-09T13:23:40;98932.44;;;24.03;51.76
48027;BME280;50714;49.208;5.364;2022-09-09T13:33:41;98926.75;;;24.27;52.40
48027;BME280;50714;49.208;5.364;2022-09-09T13:43:46;98930.59;;;23.98;53.28
48027;BME280;50714;49.208;5.364;2022-09-09T13:53:49;98945.97;;;23.72;51.01
48027;BME280;50714;49.208;5.364;2022-09-09T14:03:50;98927.63;;;22.97;52.49
48027;BME280;50714;49.208;5.364;2022-09-09T14:13:51;98938.53;;;23.21;53.46
48027;BME280;50714;49.208;5.364;2022-09-09T14:23:51;98937.88;;;23.29;52.86
48027;BME280;50714;49.208;5.364;2022-09-09T14:33:53;98950.00;;;23.28;52.82
48027;BME280;50714;49.208;5.364;2022-09-09T14:43:53;98943.88;;;23.31;52.69
48027;BME280;50714;49.208;5.364;2022-09-09T14:53:55;98933.78;;;23.08;52.07
48027;BME280;50714;49.208;5.364;2022-09-09T15:03:59;98920.72;;;22.81;53.20
48027;BME280;50714;49.208;5.364;2022-09-09T15:14:00;98934.81;;;22.32;54.56
48027;BME280;50714;49.208;5.364;2022-09-09T15:24:01;98951.31;;;22.32;54.87
48027;BME280;50714;49.208;5.364;2022-09-09T15:34:04;98959.03;;;22.06;54.06
48027;BME280;50714;49.208;5.364;2022-09-09T15:44:05;98974.56;;;21.58;54.86
48027;BME280;50714;49.208;5.364;2022-09-09T15:54:05;98973.41;;;21.35;56.13
48027;BME280;50714;49.208;5.364;2022-09-09T16:04:06;98974.53;;;21.63;56.41
48027;BME280;50714;49.208;5.364;2022-09-09T16:14:07;98995.94;;;21.95;55.69
48027;BME280;50714;49.208;5.364;2022-09-09T16:24:10;99000.97;;;21.88;55.62
48027;BME280;50714;49.208;5.364;2022-09-09T16:34:10;99003.09;;;21.62;55.61
48027;BME280;50714;49.208;5.364;2022-09-09T16:44:13;99006.41;;;21.59;56.39
48027;BME280;50714;49.208;5.364;2022-09-09T16:54:15;99005.53;;;21.68;56.64
48027;BME280;50714;49.208;5.364;2022-09-09T17:04:27;99009.13;;;21.64;57.43
48027;BME280;50714;49.208;5.364;2022-09-09T17:14:28;99003.84;;;21.38;57.24
48027;BME280;50714;49.208;5.364;2022-09-09T17:24:29;99013.84;;;21.19;57.65
48027;BME280;50714;49.208;5.364;2022-09-09T17:34:29;99019.72;;;20.97;58.48
48027;BME280;50714;49.208;5.364;2022-09-09T17:44:32;99016.50;;;20.80;58.28
48027;BME280;50714;49.208;5.364;2022-09-09T17:54:32;99012.00;;;20.50;57.87
48027;BME280;50714;49.208;5.364;2022-09-09T18:04:33;99009.56;;;20.28;57.71
48027;BME280;50714;49.208;5.364;2022-09-09T18:14:36;99019.50;;;20.04;58.08
48027;BME280;50714;49.208;5.364;2022-09-09T18:24:36;99038.97;;;19.82;58.42
48027;BME280;50714;49.208;5.364;2022-09-09T18:34:37;99055.91;;;19.64;58.31
48027;BME280;50714;49.208;5.364;2022-09-09T18:44:37;99061.91;;;19.46;58.51
48027;BME280;50714;49.208;5.364;2022-09-09T18:54:38;99085.94;;;19.38;59.12
48027;BME280;50714;49.208;5.364;2022-09-09T19:04:40;99090.34;;;19.29;59.50
48027;BME280;50714;49.208;5.364;2022-09-09T19:14:40;99107.81;;;19.23;59.76
48027;BME280;50714;49.208;5.364;2022-09-09T19:24:41;99119.31;;;19.25;59.93
48027;BME280;50714;49.208;5.364;2022-09-09T19:34:42;99121.47;;;19.18;59.96
48027;BME280;50714;49.208;5.364;2022-09-09T19:44:43;99134.59;;;19.11;60.26
48027;BME280;50714;49.208;5.364;2022-09-09T19:54:44;99146.31;;;19.01;60.69
48027;BME280;50714;49.208;5.364;2022-09-09T20:04:45;99153.91;;;18.89;61.09
48027;BME280;50714;49.208;5.364;2022-09-09T20:14:46;99152.53;;;18.87;61.67
48027;BME280;50714;49.208;5.364;2022-09-09T20:24:46;99146.72;;;18.73;62.08
48027;BME280;50714;49.208;5.364;2022-09-09T20:34:47;99148.06;;;18.65;62.28
48027;BME280;50714;49.208;5.364;2022-09-09T20:44:47;99156.78;;;18.67;62.97
48027;BME280;50714;49.208;5.364;2022-09-09T20:54:48;99170.47;;;18.72;62.96
48027;BME280;50714;49.208;5.364;2022-09-09T21:04:48;99173.44;;;18.61;62.47
48027;BME280;50714;49.208;5.364;2022-09-09T21:14:49;99169.50;;;18.52;62.76
48027;BME280;50714;49.208;5.364;2022-09-09T21:24:50;99173.53;;;18.39;63.15
48027;BME280;50714;49.208;5.364;2022-09-09T21:34:52;99158.44;;;18.31;62.97
48027;BME280;50714;49.208;5.364;2022-09-09T21:44:52;99160.81;;;18.23;63.26
48027;BME280;50714;49.208;5.364;2022-09-09T21:54:54;99167.59;;;18.15;63.67
48027;BME280;50714;49.208;5.364;2022-09-09T22:04:55;99153.91;;;18.10;63.92
48027;BME280;50714;49.208;5.364;2022-09-09T22:14:55;99163.94;;;18.04;64.32
48027;BME280;50714;49.208;5.364;2022-09-09T22:24:56;99186.38;;;18.06;64.61
48027;BME280;50714;49.208;5.364;2022-09-09T22:34:56;99191.31;;;18.10;65.38
48027;BME280;50714;49.208;5.364;2022-09-09T22:44:58;99197.03;;;18.08;66.30
48027;BME280;50714;49.208;5.364;2022-09-09T22:54:59;99191.81;;;18.06;66.38
48027;BME280;50714;49.208;5.364;2022-09-09T23:04:59;99187.69;;;18.04;66.87
48027;BME280;50714;49.208;5.364;2022-09-09T23:15:00;99187.69;;;18.04;67.31
48027;BME280;50714;49.208;5.364;2022-09-09T23:25:03;99190.69;;;18.02;67.49
48027;BME280;50714;49.208;5.364;2022-09-09T23:35:05;99191.19;;;17.99;67.73
48027;BME280;50714;49.208;5.364;2022-09-09T23:45:06;99187.06;;;17.92;67.43
48027;BME280;50714;49.208;5.364;2022-09-09T23:55:07;99182.88;;;17.84;67.98
